createdAt,value
2022-11-05T00:01:14.256Z,98745.94
2022-11-05T00:04:19.212Z,98754.53
2022-11-05T00:07:39.384Z,98750.22
2022-11-05T00:10:28.730Z,98782.97
2022-11-05T00:13:34.142Z,98764.84
2022-11-05T00:16:38.944Z,98756.28
2022-11-05T00:19:25.049Z,98788.97
2022-11-05T00:22:30.152Z,98785.56
2022-11-05T00:25:16.930Z,98779.53
2022-11-05T00:28:03.787Z,98775.19
2022-11-05T00:30:50.354Z,98764.84
2022-11-05T00:33:37.808Z,98795.84
2022-11-05T00:36:24.064Z,98763.94
2022-11-05T00:39:10.603Z,98775.97
2022-11-05T00:42:15.378Z,98788.88
2022-11-05T00:45:01.800Z,98802.69
2022-11-05T00:48:06.559Z,98785.47
2022-11-05T00:50:52.813Z,98781.16
2022-11-05T00:53:39.407Z,98804.41
2022-11-05T00:56:25.693Z,98798.34
2022-11-05T00:59:11.912Z,98816.44
2022-11-05T01:01:58.436Z,98824.22
2022-11-05T01:04:45.065Z,98825.94
2022-11-05T01:07:31.533Z,98782.00
2022-11-05T01:10:18.133Z,98824.25
2022-11-05T01:13:07.555Z,98801.06
2022-11-05T01:15:56.866Z,98835.53
2022-11-05T01:18:43.112Z,98836.38
2022-11-05T01:21:29.567Z,98819.13
2022-11-05T01:24:15.800Z,98788.09
2022-11-05T01:27:02.388Z,98827.72
2022-11-05T01:29:48.947Z,98846.69
2022-11-05T01:32:36.426Z,98847.56
2022-11-05T01:35:22.931Z,98828.56
2022-11-05T01:38:09.415Z,98782.13
2022-11-05T01:40:55.743Z,98838.97
2022-11-05T01:43:49.749Z,98852.75
2022-11-05T01:46:42.840Z,98857.94
2022-11-05T01:49:34.244Z,98835.53
2022-11-05T01:52:22.476Z,98849.31
2022-11-05T01:55:10.206Z,98868.28
2022-11-05T01:57:59.372Z,98842.41
2022-11-05T02:00:45.675Z,98847.59
2022-11-05T02:03:32.700Z,98836.38
2022-11-05T02:06:19.784Z,98853.63
2022-11-05T02:09:29.469Z,98849.28
2022-11-05T02:12:16.226Z,98874.28
2022-11-05T02:15:02.683Z,98872.59
2022-11-05T02:18:05.329Z,98877.75
2022-11-05T02:21:09.975Z,98876.94
2022-11-05T02:24:14.857Z,98876.06
2022-11-05T02:27:09.849Z,98877.81
2022-11-05T02:30:12.137Z,98871.66
2022-11-05T02:33:21.275Z,98884.63
2022-11-05T02:36:24.228Z,98884.59
2022-11-05T02:39:28.998Z,98888.09
2022-11-05T02:42:44.359Z,98867.41
2022-11-05T02:45:45.966Z,98885.53
2022-11-05T02:48:55.463Z,98873.50
2022-11-05T02:51:56.602Z,98883.84
2022-11-05T02:55:17.887Z,98875.16
2022-11-05T02:58:05.764Z,98878.66
2022-11-05T03:00:56.996Z,98861.41
2022-11-05T03:04:06.682Z,98852.81
2022-11-05T03:07:08.273Z,98895.03
2022-11-05T03:10:07.035Z,98890.72
2022-11-05T03:13:01.533Z,98899.31
2022-11-05T03:15:56.770Z,98888.13
2022-11-05T03:19:16.376Z,98879.50
2022-11-05T03:22:10.439Z,98887.22
2022-11-05T03:25:02.732Z,98904.47
2022-11-05T03:27:55.979Z,98880.38
2022-11-05T03:30:43.665Z,98884.66
2022-11-05T03:33:33.308Z,98890.72
2022-11-05T03:36:41.651Z,98913.09
2022-11-05T03:39:33.685Z,98921.63
2022-11-05T03:42:26.368Z,98915.63
2022-11-05T03:45:21.505Z,98900.97
2022-11-05T03:48:12.090Z,98925.09
2022-11-05T03:51:13.699Z,98941.41
2022-11-05T03:54:02.808Z,98916.44
2022-11-05T03:56:58.118Z,98939.69
2022-11-05T03:59:46.595Z,98949.13
2022-11-05T04:02:33.121Z,98924.91
2022-11-05T04:05:19.944Z,98946.47
2022-11-05T04:08:24.561Z,98949.09
2022-11-05T04:11:29.808Z,98954.31
2022-11-05T04:14:16.013Z,98960.31
2022-11-05T04:17:11.418Z,98954.22
2022-11-05T04:20:16.709Z,98962.03
2022-11-05T04:23:25.059Z,98974.97
2022-11-05T04:26:11.191Z,98969.78
2022-11-05T04:29:16.319Z,98952.47
2022-11-05T04:32:02.361Z,98982.66
2022-11-05T04:34:48.691Z,98987.00
2022-11-05T04:37:35.183Z,98978.34
2022-11-05T04:40:21.703Z,98933.50
2022-11-05T04:43:14.710Z,98973.13
2022-11-05T04:46:01.392Z,98955.94
2022-11-05T04:48:47.843Z,98979.16
2022-11-05T04:51:34.308Z,98942.06
2022-11-05T04:54:20.601Z,98940.38
2022-11-05T04:57:06.991Z,98999.03
2022-11-05T04:59:55.033Z,99002.50
2022-11-05T05:02:41.268Z,99002.53
2022-11-05T05:05:27.548Z,98985.19
2022-11-05T05:08:13.789Z,98999.84
2022-11-05T05:11:05.135Z,98961.88
2022-11-05T05:13:51.555Z,98997.25
2022-11-05T05:16:38.025Z,98921.34
2022-11-05T05:19:25.335Z,99020.59
2022-11-05T05:22:11.723Z,99007.63
2022-11-05T05:24:59.848Z,99024.00
2022-11-05T05:27:45.942Z,99024.84
2022-11-05T05:30:32.597Z,99013.63
2022-11-05T05:33:18.925Z,99034.25
2022-11-05T05:36:10.913Z,99031.59
2022-11-05T05:38:57.763Z,99040.16
2022-11-05T05:41:44.025Z,98964.28
2022-11-05T05:44:30.606Z,99046.22
2022-11-05T05:47:16.688Z,99012.53
2022-11-05T05:50:03.040Z,99028.06
2022-11-05T05:52:49.181Z,99020.31
2022-11-05T05:55:35.581Z,99041.94
2022-11-05T05:58:23.040Z,99048.78
2022-11-05T06:01:18.298Z,99059.09
2022-11-05T06:04:05.490Z,99049.56
2022-11-05T06:06:51.847Z,99049.56
2022-11-05T06:09:38.080Z,99038.38
2022-11-05T06:12:24.540Z,99065.09
2022-11-05T06:15:10.772Z,99055.59
2022-11-05T06:17:56.892Z,99082.34
2022-11-05T06:20:43.076Z,99090.94
2022-11-05T06:23:36.757Z,99097.81
2022-11-05T06:26:23.101Z,99066.75
2022-11-05T06:29:10.485Z,99081.34
2022-11-05T06:31:56.888Z,99102.91
2022-11-05T06:34:43.247Z,99102.06
2022-11-05T06:37:33.401Z,99114.13
2022-11-05T06:40:20.409Z,99107.19
2022-11-05T06:43:06.612Z,99095.97
2022-11-05T06:45:52.932Z,99103.72
2022-11-05T06:48:39.561Z,99133.91
2022-11-05T06:51:27.064Z,99126.94
2022-11-05T06:54:13.405Z,99121.03
2022-11-05T06:56:59.583Z,99136.63
2022-11-05T06:59:46.088Z,99108.88
2022-11-05T07:02:32.444Z,99136.41
2022-11-05T07:05:19.018Z,99157.13
2022-11-05T07:08:06.376Z,99144.25
2022-11-05T07:10:52.885Z,99165.78
2022-11-05T07:13:38.974Z,99134.66
2022-11-05T07:16:25.274Z,99172.81
2022-11-05T07:19:11.821Z,99180.53
2022-11-05T07:21:58.080Z,99169.19
2022-11-05T07:24:47.097Z,99174.34
2022-11-05T07:27:39.149Z,99200.16
2022-11-05T07:30:26.184Z,99208.84
2022-11-05T07:33:12.669Z,99187.91
2022-11-05T07:35:59.225Z,99220.66
2022-11-05T07:38:45.315Z,99198.19
2022-11-05T07:41:31.810Z,99231.84
2022-11-05T07:44:18.280Z,99230.91
2022-11-05T07:47:04.548Z,99220.50
2022-11-05T07:49:50.923Z,99226.38
2022-11-05T07:52:37.428Z,99208.19
2022-11-05T07:55:23.509Z,99248.75
2022-11-05T07:58:10.933Z,99253.84
2022-11-05T08:00:57.621Z,99254.72
2022-11-05T08:03:44.242Z,99251.16
2022-11-05T08:06:31.424Z,99260.69
2022-11-05T08:09:17.673Z,99272.66
2022-11-05T08:12:04.412Z,99247.63
2022-11-05T08:14:51.892Z,99264.84
2022-11-05T08:17:38.321Z,99246.63
2022-11-05T08:20:25.007Z,99282.16
2022-11-05T08:23:12.104Z,99271.00
2022-11-05T08:25:59.161Z,99250.25
2022-11-05T08:28:45.262Z,99233.91
2022-11-05T08:31:31.987Z,99271.16
2022-11-05T08:34:18.609Z,99274.63
2022-11-05T08:37:04.988Z,99248.81
2022-11-05T08:39:51.531Z,99247.97
2022-11-05T08:42:37.982Z,99230.69
2022-11-05T08:45:25.725Z,99251.34
2022-11-05T08:48:16.993Z,99297.22
2022-11-05T08:51:03.581Z,99286.09
2022-11-05T08:53:49.761Z,99273.16
2022-11-05T08:56:36.372Z,99303.31
2022-11-05T08:59:22.657Z,99308.56
2022-11-05T09:02:11.103Z,99316.34
2022-11-05T09:04:57.606Z,99296.53
2022-11-05T09:07:44.091Z,99316.41
2022-11-05T09:10:30.589Z,99293.84
2022-11-05T09:13:19.724Z,99300.94
2022-11-05T09:16:06.814Z,99300.94
2022-11-05T09:18:53.295Z,99289.41
2022-11-05T09:21:39.559Z,99298.28
2022-11-05T09:24:25.632Z,99300.84
2022-11-05T09:27:15.656Z,99332.78
2022-11-05T09:30:02.547Z,99328.53
2022-11-05T09:32:48.983Z,99305.31
2022-11-05T09:35:38.720Z,99293.31
2022-11-05T09:38:24.811Z,99324.41
2022-11-05T09:41:17.569Z,99330.47
2022-11-05T09:44:11.891Z,99294.09
2022-11-05T09:47:04.056Z,99313.06
2022-11-05T09:49:54.262Z,99319.97
2022-11-05T09:52:40.830Z,99320.97
2022-11-05T09:55:32.320Z,99348.59
2022-11-05T09:58:30.576Z,99353.81
2022-11-05T10:01:25.890Z,99342.72
2022-11-05T10:04:18.473Z,99356.59
2022-11-05T10:07:07.530Z,99340.16
2022-11-05T10:09:59.174Z,99328.13
2022-11-05T10:12:52.525Z,99367.97
2022-11-05T10:16:06.763Z,99351.53
2022-11-05T10:19:24.192Z,99365.38
2022-11-05T10:22:13.825Z,99300.41
2022-11-05T10:25:00.471Z,99342.00
2022-11-05T10:27:58.565Z,99367.06
2022-11-05T10:30:47.072Z,99377.47
2022-11-05T10:33:39.786Z,99363.66
2022-11-05T10:36:29.665Z,99389.59
2022-11-05T10:39:18.690Z,99383.53
2022-11-05T10:42:30.890Z,99392.25
2022-11-05T10:45:36.947Z,99383.63
2022-11-05T10:48:50.580Z,99397.44
2022-11-05T10:51:37.221Z,99371.56
2022-11-05T10:54:29.708Z,99375.91
2022-11-05T10:57:35.547Z,99395.81
2022-11-05T11:00:25.146Z,99400.94
2022-11-05T11:03:33.322Z,99402.69
2022-11-05T11:06:28.278Z,99398.44
2022-11-05T11:09:26.440Z,99395.91
2022-11-05T11:12:21.715Z,99392.47
2022-11-05T11:15:21.364Z,99371.75
2022-11-05T11:18:42.595Z,99391.81
2022-11-05T11:21:31.100Z,99372.81
2022-11-05T11:24:23.170Z,99393.63
2022-11-05T11:27:30.223Z,99381.56
2022-11-05T11:30:19.078Z,99372.94
2022-11-05T11:33:09.418Z,99381.56
2022-11-05T11:35:56.075Z,99361.69
2022-11-05T11:38:43.131Z,99392.81
2022-11-05T11:41:41.837Z,99394.53
2022-11-05T11:44:32.608Z,99363.44
2022-11-05T11:47:21.472Z,99395.44
2022-11-05T11:50:38.724Z,99396.28
2022-11-05T11:53:28.891Z,99392.84
2022-11-05T11:56:16.681Z,99398.91
2022-11-05T11:59:35.101Z,99382.47
2022-11-05T12:02:57.321Z,99397.09
2022-11-05T12:06:09.258Z,99384.13
2022-11-05T12:09:06.841Z,99376.38
2022-11-05T12:12:02.447Z,99384.13
2022-11-05T12:15:12.633Z,99363.31
2022-11-05T12:18:05.079Z,99382.16
2022-11-05T12:21:15.361Z,99354.41
2022-11-05T12:24:22.642Z,99376.13
2022-11-05T12:27:24.081Z,99377.06
2022-11-05T12:30:21.661Z,99367.50
2022-11-05T12:33:08.174Z,99379.59
2022-11-05T12:36:06.593Z,99348.47
2022-11-05T12:39:24.277Z,99376.09
2022-11-05T12:42:37.925Z,99373.53
2022-11-05T12:45:36.003Z,99333.81
2022-11-05T12:48:53.289Z,99359.69
2022-11-05T12:51:45.716Z,99373.47
2022-11-05T12:54:58.442Z,99347.66
2022-11-05T12:57:47.907Z,99370.97
2022-11-05T13:00:35.888Z,99372.84
2022-11-05T13:03:42.109Z,99370.28
2022-11-05T13:06:45.081Z,99359.06
2022-11-05T13:09:36.114Z,99357.31
2022-11-05T13:12:27.563Z,99372.00
2022-11-05T13:15:26.808Z,99380.59
2022-11-05T13:18:19.951Z,99377.22
2022-11-05T13:21:08.635Z,99365.16
2022-11-05T13:24:26.928Z,99391.94
2022-11-05T13:27:30.742Z,99389.38
2022-11-05T13:30:21.408Z,99323.72
2022-11-05T13:33:12.301Z,99396.28
2022-11-05T13:36:25.352Z,99394.53
2022-11-05T13:39:25.868Z,99408.31
2022-11-05T13:42:36.479Z,99408.28
2022-11-05T13:45:53.492Z,99411.72
2022-11-05T13:49:06.393Z,99407.38
2022-11-05T13:51:56.774Z,99403.00
2022-11-05T13:55:02.445Z,99398.69
2022-11-05T13:58:16.580Z,99411.69
2022-11-05T14:01:08.741Z,99407.34
2022-11-05T14:03:56.305Z,99411.69
2022-11-05T14:06:42.900Z,99385.69
2022-11-05T14:09:29.159Z,99369.34
2022-11-05T14:12:39.913Z,99401.41
2022-11-05T14:15:29.554Z,99407.41
2022-11-05T14:18:38.616Z,99412.56
2022-11-05T14:21:33.178Z,99410.81
2022-11-05T14:24:22.795Z,99410.81
2022-11-05T14:27:10.223Z,99411.66
2022-11-05T14:29:57.186Z,99392.63
2022-11-05T14:32:46.036Z,99384.81
2022-11-05T14:35:38.357Z,99404.75
2022-11-05T14:38:27.218Z,99334.63
2022-11-05T14:41:13.847Z,99416.78
2022-11-05T14:44:06.733Z,99414.22
2022-11-05T14:46:57.233Z,99416.84
2022-11-05T14:49:53.048Z,99418.53
2022-11-05T14:52:49.955Z,99419.34
2022-11-05T14:55:40.015Z,99402.88
2022-11-05T14:58:43.778Z,99401.97
2022-11-05T15:01:33.312Z,99430.44
2022-11-05T15:04:32.800Z,99442.53
2022-11-05T15:07:22.097Z,99438.22
2022-11-05T15:10:17.053Z,99422.59
2022-11-05T15:13:06.252Z,99443.31
2022-11-05T15:15:52.684Z,99445.00
2022-11-05T15:18:45.564Z,99442.44
2022-11-05T15:21:36.174Z,99431.09
2022-11-05T15:24:23.306Z,99413.75
2022-11-05T15:27:20.744Z,99424.13
2022-11-05T15:30:22.279Z,99420.69
2022-11-05T15:33:21.882Z,99430.06
2022-11-05T15:36:26.462Z,99399.75
2022-11-05T15:39:30.016Z,99445.53
2022-11-05T15:42:22.803Z,99438.50
2022-11-05T15:45:20.969Z,99445.38
2022-11-05T15:48:14.959Z,99414.09
2022-11-05T15:51:01.867Z,99431.34
2022-11-05T15:54:15.645Z,99439.03
2022-11-05T15:56:57.990Z,99443.38
2022-11-05T15:59:46.196Z,99394.72
2022-11-05T16:02:35.236Z,99447.44
2022-11-05T16:05:29.177Z,99437.00
2022-11-05T16:08:23.621Z,99441.19
2022-11-05T16:11:21.070Z,99427.94
2022-11-05T16:14:17.094Z,99423.59
2022-11-05T16:17:22.520Z,99454.53
2022-11-05T16:20:23.100Z,99450.69
2022-11-05T16:23:24.139Z,99452.09
2022-11-05T16:27:00.618Z,99436.97
2022-11-05T16:29:57.189Z,99461.94
2022-11-05T16:32:43.928Z,99418.25
2022-11-05T16:35:30.319Z,99435.34
2022-11-05T16:38:17.718Z,99420.38
2022-11-05T16:41:03.916Z,99448.78
2022-11-05T16:43:54.326Z,99476.19
2022-11-05T16:46:44.128Z,99428.34
2022-11-05T16:49:30.662Z,99450.63
2022-11-05T16:52:16.798Z,99394.13
2022-11-05T16:55:03.039Z,99480.59
2022-11-05T16:57:52.689Z,99455.41
2022-11-05T17:00:39.505Z,99469.97
2022-11-05T17:03:25.988Z,99455.09
2022-11-05T17:06:14.115Z,99492.41
2022-11-05T17:09:00.348Z,99478.22
2022-11-05T17:11:46.901Z,99462.34
2022-11-05T17:14:33.193Z,99495.13
2022-11-05T17:17:19.772Z,99494.06
2022-11-05T17:20:14.735Z,99492.84
2022-11-05T17:23:02.086Z,99506.69
2022-11-05T17:25:53.681Z,99502.19
2022-11-05T17:28:40.748Z,99504.59
2022-11-05T17:31:27.289Z,99465.41
2022-11-05T17:34:13.514Z,99515.59
2022-11-05T17:36:59.853Z,99503.34
2022-11-05T17:39:46.000Z,99490.16
2022-11-05T17:42:32.405Z,99506.69
2022-11-05T17:45:19.064Z,99505.66
2022-11-05T17:48:05.683Z,99492.63
2022-11-05T17:50:52.060Z,99506.91
2022-11-05T17:53:39.747Z,99527.44
2022-11-05T17:56:34.119Z,99499.56
2022-11-05T17:59:21.948Z,99512.47
2022-11-05T18:02:12.471Z,99514.78
2022-11-05T18:04:59.083Z,99538.94
2022-11-05T18:07:46.196Z,99530.94
2022-11-05T18:10:32.652Z,99533.38
2022-11-05T18:13:18.772Z,99513.44
2022-11-05T18:16:05.473Z,99549.63
2022-11-05T18:18:52.156Z,99526.63
2022-11-05T18:21:38.400Z,99531.59
2022-11-05T18:24:24.540Z,99522.00
2022-11-05T18:27:12.317Z,99551.38
2022-11-05T18:29:58.955Z,99570.25
2022-11-05T18:32:45.344Z,99530.16
2022-11-05T18:35:31.874Z,99562.97
2022-11-05T18:38:18.300Z,99563.50
2022-11-05T18:41:07.916Z,99566.94
2022-11-05T18:43:59.188Z,99542.44
2022-11-05T18:46:57.573Z,99562.47
2022-11-05T18:49:44.600Z,99511.94
2022-11-05T18:52:32.147Z,99556.34
2022-11-05T18:55:19.197Z,99553.41
2022-11-05T18:58:05.537Z,99514.16
2022-11-05T19:00:51.777Z,99526.34
2022-11-05T19:03:38.404Z,99502.72
2022-11-05T19:06:27.539Z,99527.78
2022-11-05T19:09:14.027Z,99560.63
2022-11-05T19:12:00.724Z,99533.88
2022-11-05T19:14:47.197Z,99519.94
2022-11-05T19:17:34.536Z,99522.09
2022-11-05T19:20:20.806Z,99535.53
2022-11-05T19:23:07.064Z,99498.59
2022-11-05T19:25:53.515Z,99546.25
2022-11-05T19:28:40.168Z,99531.44
2022-11-05T19:31:27.796Z,99553.03
2022-11-05T19:34:14.715Z,99553.38
2022-11-05T19:37:01.085Z,99531.94
2022-11-05T19:39:47.232Z,99560.31
2022-11-05T19:42:33.676Z,99528.72
2022-11-05T19:45:43.650Z,99530.34
2022-11-05T19:48:27.641Z,99534.72
2022-11-05T19:51:19.152Z,99541.78
2022-11-05T19:54:05.831Z,99556.03
2022-11-05T19:56:52.721Z,99516.88
2022-11-05T19:59:39.246Z,99531.25
2022-11-05T20:02:27.559Z,99523.25
2022-11-05T20:05:14.583Z,99511.69
2022-11-05T20:08:01.231Z,99549.94
2022-11-05T20:10:47.400Z,99551.81
2022-11-05T20:13:33.928Z,99576.19
2022-11-05T20:16:26.314Z,99534.44
2022-11-05T20:19:16.053Z,99581.22
2022-11-05T20:22:02.692Z,99529.94
2022-11-05T20:24:49.036Z,99571.41
2022-11-05T20:27:35.231Z,99556.16
2022-11-05T20:30:21.469Z,99561.50
2022-11-05T20:33:07.593Z,99543.53
2022-11-05T20:35:55.667Z,99539.34
2022-11-05T20:38:42.026Z,99574.34
2022-11-05T20:41:28.844Z,99569.13
2022-11-05T20:44:15.498Z,99575.47
2022-11-05T20:47:01.989Z,99532.84
2022-11-05T20:49:48.943Z,99577.84
2022-11-05T20:52:35.511Z,99559.31
2022-11-05T20:55:21.960Z,99547.13
2022-11-05T20:58:08.247Z,99579.97
2022-11-05T21:00:56.025Z,99569.31
2022-11-05T21:03:43.451Z,99575.50
2022-11-05T21:06:30.361Z,99585.53
2022-11-05T21:09:16.676Z,99559.84
2022-11-05T21:12:11.943Z,99528.75
2022-11-05T21:14:58.435Z,99564.16
2022-11-05T21:17:45.162Z,99561.47
2022-11-05T21:20:31.529Z,99593.44
2022-11-05T21:23:18.226Z,99583.91
2022-11-05T21:26:10.732Z,99578.59
2022-11-05T21:28:57.128Z,99565.91
2022-11-05T21:31:43.956Z,99585.31
2022-11-05T21:34:30.470Z,99561.38
2022-11-05T21:37:16.717Z,99549.59
2022-11-05T21:40:03.644Z,99567.78
2022-11-05T21:42:49.824Z,99572.47
2022-11-05T21:45:41.389Z,99595.91
2022-11-05T21:48:27.807Z,99563.53
2022-11-05T21:51:32.748Z,99554.72
2022-11-05T21:54:48.320Z,99545.78
2022-11-05T21:57:53.656Z,99578.03
2022-11-05T22:00:39.815Z,99582.56
2022-11-05T22:03:26.313Z,99590.63
2022-11-05T22:06:12.561Z,99554.28
2022-11-05T22:08:58.822Z,99551.59
2022-11-05T22:11:44.940Z,99519.84
2022-11-05T22:14:31.433Z,99544.69
2022-11-05T22:17:18.345Z,99572.44
2022-11-05T22:20:05.371Z,99557.84
2022-11-05T22:22:52.672Z,99561.91
2022-11-05T22:25:39.185Z,99564.94
2022-11-05T22:28:25.608Z,99525.91
2022-11-05T22:31:16.387Z,99567.59
2022-11-05T22:34:02.604Z,99547.50
2022-11-05T22:36:48.892Z,99537.84
2022-11-05T22:39:35.071Z,99503.03
2022-11-05T22:42:21.346Z,99549.34
2022-11-05T22:45:08.490Z,99564.53
2022-11-05T22:47:54.920Z,99548.16
2022-11-05T22:50:41.020Z,99560.84
2022-11-05T22:53:27.528Z,99554.72
2022-11-05T22:56:16.270Z,99567.69
2022-11-05T22:59:04.022Z,99567.69
2022-11-05T23:01:50.189Z,99560.28
2022-11-05T23:04:36.606Z,99522.91
2022-11-05T23:07:58.219Z,99531.63
2022-11-05T23:11:03.284Z,99505.00
2022-11-05T23:13:49.308Z,99545.88
2022-11-05T23:16:54.941Z,99557.25
2022-11-05T23:19:59.813Z,99531.47
2022-11-05T23:23:04.723Z,99548.53
2022-11-05T23:25:57.533Z,99524.25
2022-11-05T23:28:43.638Z,99496.28
2022-11-05T23:31:48.764Z,99491.63
2022-11-05T23:34:35.286Z,99499.41
2022-11-05T23:37:41.963Z,99544.19
2022-11-05T23:40:30.416Z,99516.97
2022-11-05T23:43:35.420Z,99536.13
2022-11-05T23:46:40.479Z,99520.56
2022-11-05T23:49:26.817Z,99506.09
2022-11-05T23:52:12.940Z,99512.25
2022-11-05T23:54:58.911Z,99519.41
2022-11-05T23:57:45.448Z,99408.44
